sensor_id;sensor_type;location;lat;lon;timestamp;pressure;altitude;pressure_sealevel;temperature;humidity
32324;BME280;25666;44.350;9.222;2023-02-28T00:01:11;101717.69;;;8.84;69.37
32324;BME280;25666;44.350;9.222;2023-02-28T00:03:37;101711.31;;;8.84;68.54
32324;BME280;25666;44.350;9.222;2023-02-28T00:06:04;101720.84;;;8.91;68.80
32324;BME280;25666;44.350;9.222;2023-02-28T00:08:30;101719.41;;;8.94;70.17
32324;BME280;25666;44.350;9.222;2023-02-28T00:10:55;101710.78;;;8.95;72.27
32324;BME280;25666;44.350;9.222;2023-02-28T00:13:21;101708.94;;;8.91;75.35
32324;BME280;25666;44.350;9.222;2023-02-28T00:15:46;101718.53;;;8.85;78.71
32324;BME280;25666;44.350;9.222;2023-02-28T00:18:12;101712.13;;;8.84;72.49
32324;BME280;25666;44.350;9.222;2023-02-28T00:20:38;101729.78;;;8.66;70.64
32324;BME280;25666;44.350;9.222;2023-02-28T00:23:04;101723.25;;;8.84;70.47
32324;BME280;25666;44.350;9.222;2023-02-28T00:25:30;101735.22;;;8.71;70.88
32324;BME280;25666;44.350;9.222;2023-02-28T00:27:55;101718.47;;;8.76;70.21
32324;BME280;25666;44.350;9.222;2023-02-28T00:30:22;101729.63;;;8.85;70.49
32324;BME280;25666;44.350;9.222;2023-02-28T00:32:48;101725.19;;;8.84;72.52
32324;BME280;25666;44.350;9.222;2023-02-28T00:35:14;101737.75;;;8.81;74.06
32324;BME280;25666;44.350;9.222;2023-02-28T00:37:40;101746.94;;;8.68;74.34
32324;BME280;25666;44.350;9.222;2023-02-28T00:40:07;101738.81;;;8.72;83.62
32324;BME280;25666;44.350;9.222;2023-02-28T00:42:36;101750.53;;;8.69;73.34
32324;BME280;25666;44.350;9.222;2023-02-28T00:45:02;101752.06;;;8.75;72.20
32324;BME280;25666;44.350;9.222;2023-02-28T00:47:30;101762.03;;;8.76;73.36
32324;BME280;25666;44.350;9.222;2023-02-28T00:49:55;101764.13;;;8.70;71.98
32324;BME280;25666;44.350;9.222;2023-02-28T00:52:21;101764.56;;;8.64;73.39
32324;BME280;25666;44.350;9.222;2023-02-28T00:54:46;101764.84;;;8.62;76.01
32324;BME280;25666;44.350;9.222;2023-02-28T00:57:13;101769.00;;;8.51;73.44
32324;BME280;25666;44.350;9.222;2023-02-28T00:59:39;101768.66;;;8.66;73.05
32324;BME280;25666;44.350;9.222;2023-02-28T01:02:05;101761.34;;;8.70;76.27
32324;BME280;25666;44.350;9.222;2023-02-28T01:04:31;101760.31;;;8.66;76.96
32324;BME280;25666;44.350;9.222;2023-02-28T01:06:59;101773.09;;;8.67;72.25
32324;BME280;25666;44.350;9.222;2023-02-28T01:09:25;101777.56;;;8.77;72.44
32324;BME280;25666;44.350;9.222;2023-02-28T01:11:51;101775.78;;;8.81;73.19
32324;BME280;25666;44.350;9.222;2023-02-28T01:14:17;101770.03;;;8.77;79.49
32324;BME280;25666;44.350;9.222;2023-02-28T01:16:44;101772.03;;;8.77;76.10
32324;BME280;25666;44.350;9.222;2023-02-28T01:19:10;101781.41;;;8.67;81.86
32324;BME280;25666;44.350;9.222;2023-02-28T01:21:37;101776.56;;;8.73;79.88
32324;BME280;25666;44.350;9.222;2023-02-28T01:24:04;101777.38;;;8.73;81.16
32324;BME280;25666;44.350;9.222;2023-02-28T01:26:30;101782.66;;;8.61;74.56
32324;BME280;25666;44.350;9.222;2023-02-28T01:28:56;101772.25;;;8.67;75.89
32324;BME280;25666;44.350;9.222;2023-02-28T01:31:22;101770.94;;;8.64;73.96
32324;BME280;25666;44.350;9.222;2023-02-28T01:33:48;101766.00;;;8.61;72.32
32324;BME280;25666;44.350;9.222;2023-02-28T01:36:17;101756.78;;;8.74;73.73
32324;BME280;25666;44.350;9.222;2023-02-28T01:38:44;101768.16;;;8.64;71.24
32324;BME280;25666;44.350;9.222;2023-02-28T01:41:18;101754.47;;;8.68;71.23
32324;BME280;25666;44.350;9.222;2023-02-28T01:46:11;101763.72;;;8.63;70.50
32324;BME280;25666;44.350;9.222;2023-02-28T01:48:45;101760.56;;;8.56;68.75
32324;BME280;25666;44.350;9.222;2023-02-28T01:51:20;101745.84;;;8.55;68.77
32324;BME280;25666;44.350;9.222;2023-02-28T01:53:52;101752.44;;;8.59;68.04
32324;BME280;25666;44.350;9.222;2023-02-28T01:56:20;101760.13;;;8.63;67.15
32324;BME280;25666;44.350;9.222;2023-02-28T01:59:03;101753.88;;;8.57;67.04
32324;BME280;25666;44.350;9.222;2023-02-28T02:01:29;101757.91;;;8.51;68.00
32324;BME280;25666;44.350;9.222;2023-02-28T02:04:00;101754.06;;;8.60;66.94
32324;BME280;25666;44.350;9.222;2023-02-28T02:06:40;101760.69;;;8.51;67.30
32324;BME280;25666;44.350;9.222;2023-02-28T02:09:09;101754.47;;;8.68;69.53
32324;BME280;25666;44.350;9.222;2023-02-28T02:11:36;101744.94;;;8.60;67.00
32324;BME280;25666;44.350;9.222;2023-02-28T02:22:54;101748.19;;;8.62;65.41
32324;BME280;25666;44.350;9.222;2023-02-28T02:25:41;101735.28;;;8.57;64.89
32324;BME280;25666;44.350;9.222;2023-02-28T02:31:48;101718.25;;;8.73;66.90
32324;BME280;25666;44.350;9.222;2023-02-28T02:34:34;101737.81;;;8.68;62.08
32324;BME280;25666;44.350;9.222;2023-02-28T02:37:57;101723.22;;;8.62;61.77
32324;BME280;25666;44.350;9.222;2023-02-28T02:40:03;101743.97;;;8.65;60.82
32324;BME280;25666;44.350;9.222;2023-02-28T02:45:17;101730.41;;;8.63;61.24
32324;BME280;25666;44.350;9.222;2023-02-28T02:47:48;101729.72;;;8.57;61.52
32324;BME280;25666;44.350;9.222;2023-02-28T02:50:24;101721.47;;;8.66;61.27
32324;BME280;25666;44.350;9.222;2023-02-28T02:52:56;101725.44;;;8.51;61.02
32324;BME280;25666;44.350;9.222;2023-02-28T02:55:23;101721.91;;;8.59;61.94
32324;BME280;25666;44.350;9.222;2023-02-28T02:58:00;101725.16;;;8.61;60.29
32324;BME280;25666;44.350;9.222;2023-02-28T03:00:32;101710.16;;;8.63;61.76
32324;BME280;25666;44.350;9.222;2023-02-28T03:03:02;101705.59;;;8.58;60.18
32324;BME280;25666;44.350;9.222;2023-02-28T03:05:47;101710.06;;;8.68;60.54
32324;BME280;25666;44.350;9.222;2023-02-28T03:08:13;101722.59;;;8.65;62.09
32324;BME280;25666;44.350;9.222;2023-02-28T03:10:43;101718.19;;;8.64;63.87
32324;BME280;25666;44.350;9.222;2023-02-28T03:13:52;101722.25;;;8.44;68.83
32324;BME280;25666;44.350;9.222;2023-02-28T03:16:41;101733.47;;;8.39;62.53
32324;BME280;25666;44.350;9.222;2023-02-28T03:19:37;101717.59;;;8.53;62.92
32324;BME280;25666;44.350;9.222;2023-02-28T03:27:41;101721.22;;;8.40;65.02
32324;BME280;25666;44.350;9.222;2023-02-28T03:30:38;101704.28;;;8.42;66.25
32324;BME280;25666;44.350;9.222;2023-02-28T03:33:17;101718.03;;;8.47;65.41
32324;BME280;25666;44.350;9.222;2023-02-28T03:35:52;101722.47;;;8.34;66.12
32324;BME280;25666;44.350;9.222;2023-02-28T03:38:24;101721.56;;;8.39;64.26
32324;BME280;25666;44.350;9.222;2023-02-28T03:41:00;101721.75;;;8.42;68.81
32324;BME280;25666;44.350;9.222;2023-02-28T03:43:32;101718.19;;;8.28;65.30
32324;BME280;25666;44.350;9.222;2023-02-28T03:46:02;101719.00;;;8.29;64.32
32324;BME280;25666;44.350;9.222;2023-02-28T03:49:07;101724.81;;;8.27;65.48
32324;BME280;25666;44.350;9.222;2023-02-28T03:51:35;101719.91;;;8.24;64.63
32324;BME280;25666;44.350;9.222;2023-02-28T03:54:08;101740.25;;;8.20;65.18
32324;BME280;25666;44.350;9.222;2023-02-28T03:56:42;101727.50;;;8.19;67.53
32324;BME280;25666;44.350;9.222;2023-02-28T03:59:32;101728.34;;;8.19;67.48
32324;BME280;25666;44.350;9.222;2023-02-28T04:02:00;101718.28;;;8.23;65.70
32324;BME280;25666;44.350;9.222;2023-02-28T04:04:26;101723.50;;;8.25;68.35
32324;BME280;25666;44.350;9.222;2023-02-28T04:07:01;101723.63;;;8.20;69.45
32324;BME280;25666;44.350;9.222;2023-02-28T04:09:27;101739.44;;;8.19;72.31
32324;BME280;25666;44.350;9.222;2023-02-28T04:11:53;101714.38;;;8.11;70.70
32324;BME280;25666;44.350;9.222;2023-02-28T04:14:19;101727.50;;;8.19;75.56
32324;BME280;25666;44.350;9.222;2023-02-28T04:16:44;101738.31;;;8.20;75.22
32324;BME280;25666;44.350;9.222;2023-02-28T04:19:12;101729.25;;;8.15;70.29
32324;BME280;25666;44.350;9.222;2023-02-28T04:21:41;101716.63;;;8.08;71.57
32324;BME280;25666;44.350;9.222;2023-02-28T04:24:11;101722.72;;;8.11;71.64
32324;BME280;25666;44.350;9.222;2023-02-28T04:26:41;101728.63;;;8.18;74.05
32324;BME280;25666;44.350;9.222;2023-02-28T04:29:11;101718.59;;;8.08;81.83
32324;BME280;25666;44.350;9.222;2023-02-28T04:31:37;101732.66;;;8.12;80.64
32324;BME280;25666;44.350;9.222;2023-02-28T04:34:03;101728.97;;;8.16;78.39
32324;BME280;25666;44.350;9.222;2023-02-28T04:36:29;101728.13;;;8.16;81.12
32324;BME280;25666;44.350;9.222;2023-02-28T04:38:54;101728.25;;;8.11;81.95
32324;BME280;25666;44.350;9.222;2023-02-28T04:41:20;101747.53;;;8.16;79.62
32324;BME280;25666;44.350;9.222;2023-02-28T04:43:46;101725.56;;;8.05;75.99
32324;BME280;25666;44.350;9.222;2023-02-28T04:46:12;101719.19;;;8.19;75.11
32324;BME280;25666;44.350;9.222;2023-02-28T04:48:39;101733.81;;;8.11;81.51
32324;BME280;25666;44.350;9.222;2023-02-28T04:51:09;101752.59;;;8.00;79.51
32324;BME280;25666;44.350;9.222;2023-02-28T04:53:37;101753.41;;;7.73;79.62
32324;BME280;25666;44.350;9.222;2023-02-28T04:56:03;101742.31;;;7.87;79.70
32324;BME280;25666;44.350;9.222;2023-02-28T04:58:28;101734.13;;;7.95;83.16
32324;BME280;25666;44.350;9.222;2023-02-28T05:01:23;101751.97;;;7.89;84.84
32324;BME280;25666;44.350;9.222;2023-02-28T05:03:47;101735.94;;;8.00;81.50
32324;BME280;25666;44.350;9.222;2023-02-28T05:06:13;101733.38;;;8.03;84.64
32324;BME280;25666;44.350;9.222;2023-02-28T05:08:39;101757.31;;;7.99;92.76
32324;BME280;25666;44.350;9.222;2023-02-28T05:11:29;101746.00;;;7.96;92.10
32324;BME280;25666;44.350;9.222;2023-02-28T05:14:03;101748.78;;;7.96;95.38
32324;BME280;25666;44.350;9.222;2023-02-28T05:16:29;101750.63;;;7.87;93.87
32324;BME280;25666;44.350;9.222;2023-02-28T05:18:55;101753.81;;;7.80;93.34
32324;BME280;25666;44.350;9.222;2023-02-28T05:21:29;101756.56;;;7.80;90.54
32324;BME280;25666;44.350;9.222;2023-02-28T05:23:58;101756.91;;;7.92;94.02
32324;BME280;25666;44.350;9.222;2023-02-28T05:26:24;101770.84;;;7.87;92.48
32324;BME280;25666;44.350;9.222;2023-02-28T05:28:50;101771.19;;;7.86;94.33
32324;BME280;25666;44.350;9.222;2023-02-28T05:31:15;101767.06;;;7.97;100.00
32324;BME280;25666;44.350;9.222;2023-02-28T05:33:41;101777.31;;;7.96;100.00
32324;BME280;25666;44.350;9.222;2023-02-28T05:36:07;101779.38;;;7.91;100.00
32324;BME280;25666;44.350;9.222;2023-02-28T05:38:32;101772.41;;;7.80;98.56
32324;BME280;25666;44.350;9.222;2023-02-28T05:40:58;101764.72;;;7.77;95.09
32324;BME280;25666;44.350;9.222;2023-02-28T05:43:23;101762.22;;;7.75;95.09
32324;BME280;25666;44.350;9.222;2023-02-28T05:45:49;101768.91;;;7.74;95.56
32324;BME280;25666;44.350;9.222;2023-02-28T05:48:14;101767.25;;;7.87;99.47
32324;BME280;25666;44.350;9.222;2023-02-28T05:50:40;101769.03;;;7.83;99.40
32324;BME280;25666;44.350;9.222;2023-02-28T05:53:07;101775.78;;;7.90;98.04
32324;BME280;25666;44.350;9.222;2023-02-28T05:55:33;101779.28;;;7.82;100.00
32324;BME280;25666;44.350;9.222;2023-02-28T05:57:58;101774.34;;;7.93;100.00
32324;BME280;25666;44.350;9.222;2023-02-28T06:00:24;101773.22;;;7.80;100.00
32324;BME280;25666;44.350;9.222;2023-02-28T06:02:49;101777.34;;;7.83;100.00
32324;BME280;25666;44.350;9.222;2023-02-28T06:05:17;101774.06;;;7.94;100.00
32324;BME280;25666;44.350;9.222;2023-02-28T06:07:43;101767.38;;;7.95;100.00
32324;BME280;25666;44.350;9.222;2023-02-28T06:10:11;101772.19;;;7.90;100.00
32324;BME280;25666;44.350;9.222;2023-02-28T06:12:37;101774.75;;;8.00;100.00
32324;BME280;25666;44.350;9.222;2023-02-28T06:15:03;101766.25;;;7.96;100.00
32324;BME280;25666;44.350;9.222;2023-02-28T06:17:29;101758.88;;;7.92;100.00
32324;BME280;25666;44.350;9.222;2023-02-28T06:19:54;101762.75;;;7.91;100.00
32324;BME280;25666;44.350;9.222;2023-02-28T06:22:19;101768.31;;;7.91;100.00
32324;BME280;25666;44.350;9.222;2023-02-28T06:24:45;101770.97;;;7.96;100.00
32324;BME280;25666;44.350;9.222;2023-02-28T06:27:10;101776.31;;;8.06;100.00
32324;BME280;25666;44.350;9.222;2023-02-28T06:29:36;101776.00;;;8.07;100.00
32324;BME280;25666;44.350;9.222;2023-02-28T06:32:05;101790.59;;;8.13;100.00
32324;BME280;25666;44.350;9.222;2023-02-28T06:34:31;101781.84;;;8.20;100.00
32324;BME280;25666;44.350;9.222;2023-02-28T06:36:56;101795.09;;;8.23;100.00
32324;BME280;25666;44.350;9.222;2023-02-28T06:39:22;101798.69;;;8.23;100.00
32324;BME280;25666;44.350;9.222;2023-02-28T06:41:47;101782.28;;;8.27;100.00
32324;BME280;25666;44.350;9.222;2023-02-28T06:44:15;101789.75;;;8.26;100.00
32324;BME280;25666;44.350;9.222;2023-02-28T06:46:42;101798.00;;;8.31;100.00
32324;BME280;25666;44.350;9.222;2023-02-28T06:49:09;101796.47;;;8.39;100.00
32324;BME280;25666;44.350;9.222;2023-02-28T06:51:36;101795.31;;;8.40;100.00
32324;BME280;25666;44.350;9.222;2023-02-28T06:54:02;101793.44;;;8.49;100.00
32324;BME280;25666;44.350;9.222;2023-02-28T06:56:28;101793.44;;;8.49;100.00
32324;BME280;25666;44.350;9.222;2023-02-28T06:58:53;101801.69;;;8.54;100.00
32324;BME280;25666;44.350;9.222;2023-02-28T07:01:19;101804.75;;;8.52;100.00
32324;BME280;25666;44.350;9.222;2023-02-28T07:03:46;101823.06;;;8.40;96.27
32324;BME280;25666;44.350;9.222;2023-02-28T07:06:12;101791.50;;;8.49;95.36
32324;BME280;25666;44.350;9.222;2023-02-28T07:08:38;101804.13;;;8.55;100.00
32324;BME280;25666;44.350;9.222;2023-02-28T07:11:05;101792.25;;;8.41;93.34
32324;BME280;25666;44.350;9.222;2023-02-28T07:13:30;101793.44;;;8.49;93.39
32324;BME280;25666;44.350;9.222;2023-02-28T07:16:02;101800.72;;;8.58;100.00
32324;BME280;25666;44.350;9.222;2023-02-28T07:18:28;101803.81;;;8.71;96.89
32324;BME280;25666;44.350;9.222;2023-02-28T07:20:54;101802.88;;;8.61;100.00
32324;BME280;25666;44.350;9.222;2023-02-28T07:23:19;101793.75;;;8.61;98.34
32324;BME280;25666;44.350;9.222;2023-02-28T07:25:45;101798.75;;;8.73;100.00
32324;BME280;25666;44.350;9.222;2023-02-28T07:28:12;101804.59;;;8.71;97.01
32324;BME280;25666;44.350;9.222;2023-02-28T07:30:37;101807.50;;;8.66;99.40
32324;BME280;25666;44.350;9.222;2023-02-28T07:33:03;101796.28;;;8.71;99.21
32324;BME280;25666;44.350;9.222;2023-02-28T07:35:29;101796.28;;;8.71;100.00
32324;BME280;25666;44.350;9.222;2023-02-28T07:37:57;101800.56;;;8.77;100.00
32324;BME280;25666;44.350;9.222;2023-02-28T07:40:23;101802.84;;;8.75;95.22
32324;BME280;25666;44.350;9.222;2023-02-28T07:42:48;101803.19;;;8.96;94.50
32324;BME280;25666;44.350;9.222;2023-02-28T07:45:16;101812.06;;;8.98;97.37
32324;BME280;25666;44.350;9.222;2023-02-28T07:47:43;101815.31;;;9.00;98.80
32324;BME280;25666;44.350;9.222;2023-02-28T07:50:11;101812.50;;;9.13;100.00
32324;BME280;25666;44.350;9.222;2023-02-28T07:52:37;101814.75;;;9.11;98.40
32324;BME280;25666;44.350;9.222;2023-02-28T07:55:04;101813.53;;;9.18;98.90
32324;BME280;25666;44.350;9.222;2023-02-28T07:57:30;101801.19;;;9.10;100.00
32324;BME280;25666;44.350;9.222;2023-02-28T07:59:55;101807.00;;;9.22;99.66
32324;BME280;25666;44.350;9.222;2023-02-28T08:02:21;101801.84;;;9.29;98.61
32324;BME280;25666;44.350;9.222;2023-02-28T08:04:46;101802.97;;;9.28;93.90
32324;BME280;25666;44.350;9.222;2023-02-28T08:07:13;101811.94;;;9.25;100.00
32324;BME280;25666;44.350;9.222;2023-02-28T08:09:39;101819.00;;;9.31;90.51
32324;BME280;25666;44.350;9.222;2023-02-28T08:12:07;101803.41;;;9.75;100.00
32324;BME280;25666;44.350;9.222;2023-02-28T08:14:33;101807.06;;;9.84;100.00
32324;BME280;25666;44.350;9.222;2023-02-28T08:16:58;101805.31;;;9.96;100.00
32324;BME280;25666;44.350;9.222;2023-02-28T08:19:23;101814.19;;;9.98;100.00
32324;BME280;25666;44.350;9.222;2023-02-28T08:21:49;101816.31;;;10.01;99.84
32324;BME280;25666;44.350;9.222;2023-02-28T08:24:14;101810.44;;;10.03;97.51
32324;BME280;25666;44.350;9.222;2023-02-28T08:26:40;101822.84;;;9.97;95.27
32324;BME280;25666;44.350;9.222;2023-02-28T08:29:05;101821.53;;;9.94;91.31
32324;BME280;25666;44.350;9.222;2023-02-28T08:31:31;101826.28;;;10.02;98.52
32324;BME280;25666;44.350;9.222;2023-02-28T08:33:56;101815.53;;;10.09;94.20
32324;BME280;25666;44.350;9.222;2023-02-28T08:36:25;101816.09;;;9.89;93.26
32324;BME280;25666;44.350;9.222;2023-02-28T08:38:51;101824.75;;;9.88;98.26
32324;BME280;25666;44.350;9.222;2023-02-28T08:41:16;101829.50;;;9.87;93.01
32324;BME280;25666;44.350;9.222;2023-02-28T08:43:42;101831.94;;;9.80;91.85
32324;BME280;25666;44.350;9.222;2023-02-28T08:46:11;101822.50;;;10.20;90.69
32324;BME280;25666;44.350;9.222;2023-02-28T08:48:37;101829.22;;;10.28;87.77
32324;BME280;25666;44.350;9.222;2023-02-28T08:51:08;101816.09;;;10.20;82.80
32324;BME280;25666;44.350;9.222;2023-02-28T08:53:38;101820.09;;;10.36;82.59
32324;BME280;25666;44.350;9.222;2023-02-28T08:56:14;101825.00;;;10.39;83.93
32324;BME280;25666;44.350;9.222;2023-02-28T08:58:42;101825.09;;;10.17;86.74
32324;BME280;25666;44.350;9.222;2023-02-28T09:01:20;101827.72;;;10.22;86.31
32324;BME280;25666;44.350;9.222;2023-02-28T09:03:47;101843.78;;;10.25;84.08
32324;BME280;25666;44.350;9.222;2023-02-28T09:06:14;101839.56;;;10.36;82.48
32324;BME280;25666;44.350;9.222;2023-02-28T09:08:40;101842.03;;;10.46;80.96
32324;BME280;25666;44.350;9.222;2023-02-28T09:11:06;101853.06;;;10.60;81.05
32324;BME280;25666;44.350;9.222;2023-02-28T09:13:32;101841.06;;;10.42;83.43
32324;BME280;25666;44.350;9.222;2023-02-28T09:15:59;101847.19;;;10.61;84.53
32324;BME280;25666;44.350;9.222;2023-02-28T09:18:26;101847.31;;;10.56;85.25
32324;BME280;25666;44.350;9.222;2023-02-28T09:20:51;101847.31;;;10.56;86.78
32324;BME280;25666;44.350;9.222;2023-02-28T09:23:17;101845.06;;;10.75;86.54
32324;BME280;25666;44.350;9.222;2023-02-28T09:25:54;101849.81;;;10.75;85.46
32324;BME280;25666;44.350;9.222;2023-02-28T09:28:20;101863.16;;;10.47;81.65
32324;BME280;25666;44.350;9.222;2023-02-28T09:30:48;101836.97;;;10.40;80.97
32324;BME280;25666;44.350;9.222;2023-02-28T09:33:15;101837.06;;;10.26;80.67
32324;BME280;25666;44.350;9.222;2023-02-28T09:35:40;101841.06;;;10.42;81.14
32324;BME280;25666;44.350;9.222;2023-02-28T09:38:06;101841.50;;;11.09;82.76
32324;BME280;25666;44.350;9.222;2023-02-28T09:40:36;101836.25;;;11.51;81.51
32324;BME280;25666;44.350;9.222;2023-02-28T09:43:02;101842.63;;;11.60;77.09
32324;BME280;25666;44.350;9.222;2023-02-28T09:45:41;101839.34;;;11.75;77.61
32324;BME280;25666;44.350;9.222;2023-02-28T09:48:13;101840.34;;;11.70;72.01
32324;BME280;25666;44.350;9.222;2023-02-28T09:50:45;101843.13;;;10.93;74.51
32324;BME280;25666;44.350;9.222;2023-02-28T09:53:27;101832.94;;;11.57;75.57
32324;BME280;25666;44.350;9.222;2023-02-28T09:55:57;101838.72;;;11.52;73.53
32324;BME280;25666;44.350;9.222;2023-02-28T09:58:49;101836.72;;;11.87;71.76
32324;BME280;25666;44.350;9.222;2023-02-28T10:01:39;101833.75;;;11.84;71.30
32324;BME280;25666;44.350;9.222;2023-02-28T10:06:53;101838.38;;;11.54;72.74
32324;BME280;25666;44.350;9.222;2023-02-28T10:09:25;101832.75;;;11.88;72.33
32324;BME280;25666;44.350;9.222;2023-02-28T10:11:54;101820.59;;;11.93;73.47
32324;BME280;25666;44.350;9.222;2023-02-28T10:14:23;101826.84;;;11.81;71.78
32324;BME280;25666;44.350;9.222;2023-02-28T10:17:03;101823.31;;;11.46;72.48
32324;BME280;25666;44.350;9.222;2023-02-28T10:19:46;101823.59;;;11.70;73.10
32324;BME280;25666;44.350;9.222;2023-02-28T10:22:26;101833.25;;;11.81;72.20
32324;BME280;25666;44.350;9.222;2023-02-28T10:24:56;101835.25;;;11.72;72.08
32324;BME280;25666;44.350;9.222;2023-02-28T10:27:32;101830.81;;;11.80;69.82
32324;BME280;25666;44.350;9.222;2023-02-28T10:30:00;101839.09;;;12.06;74.40
32324;BME280;25666;44.350;9.222;2023-02-28T10:32:29;101828.81;;;11.89;71.64
32324;BME280;25666;44.350;9.222;2023-02-28T10:35:06;101839.84;;;11.51;71.07
32324;BME280;25666;44.350;9.222;2023-02-28T10:37:43;101837.88;;;11.52;70.92
32324;BME280;25666;44.350;9.222;2023-02-28T10:40:27;101863.28;;;11.76;73.71
32324;BME280;25666;44.350;9.222;2023-02-28T10:45:30;101854.44;;;11.57;72.00
32324;BME280;25666;44.350;9.222;2023-02-28T10:48:04;101851.50;;;11.45;72.73
32324;BME280;25666;44.350;9.222;2023-02-28T10:50:35;101851.78;;;11.86;74.21
32324;BME280;25666;44.350;9.222;2023-02-28T10:53:10;101856.06;;;11.75;71.03
32324;BME280;25666;44.350;9.222;2023-02-28T10:55:40;101850.84;;;12.20;74.33
32324;BME280;25666;44.350;9.222;2023-02-28T10:58:27;101847.88;;;11.70;72.83
32324;BME280;25666;44.350;9.222;2023-02-28T11:00:53;101847.69;;;11.84;71.73
32324;BME280;25666;44.350;9.222;2023-02-28T11:03:30;101838.94;;;12.02;69.64
32324;BME280;25666;44.350;9.222;2023-02-28T11:05:56;101837.47;;;12.05;71.26
32324;BME280;25666;44.350;9.222;2023-02-28T11:08:22;101839.19;;;11.37;70.83
32324;BME280;25666;44.350;9.222;2023-02-28T11:10:54;101826.91;;;11.55;71.57
32324;BME280;25666;44.350;9.222;2023-02-28T11:13:26;101846.59;;;11.42;74.16
32324;BME280;25666;44.350;9.222;2023-02-28T11:15:58;101836.75;;;11.27;74.30
32324;BME280;25666;44.350;9.222;2023-02-28T11:21:04;101833.97;;;11.01;74.81
32324;BME280;25666;44.350;9.222;2023-02-28T11:23:33;101827.25;;;11.02;73.47
32324;BME280;25666;44.350;9.222;2023-02-28T11:26:02;101809.03;;;11.22;78.69
32324;BME280;25666;44.350;9.222;2023-02-28T11:28:41;101819.06;;;11.14;75.80
32324;BME280;25666;44.350;9.222;2023-02-28T11:33:55;101812.66;;;11.14;75.81
32324;BME280;25666;44.350;9.222;2023-02-28T11:36:27;101804.47;;;11.00;74.17
32324;BME280;25666;44.350;9.222;2023-02-28T11:39:07;101806.72;;;11.50;72.38
32324;BME280;25666;44.350;9.222;2023-02-28T11:41:57;101810.19;;;10.78;75.88
32324;BME280;25666;44.350;9.222;2023-02-28T11:44:37;101805.63;;;11.08;72.69
32324;BME280;25666;44.350;9.222;2023-02-28T11:47:17;101798.41;;;11.24;73.78
32324;BME280;25666;44.350;9.222;2023-02-28T11:52:45;101788.06;;;11.33;72.83
32324;BME280;25666;44.350;9.222;2023-02-28T11:55:32;101792.00;;;11.06;73.57
32324;BME280;25666;44.350;9.222;2023-02-28T12:01:03;101782.16;;;11.09;70.87
32324;BME280;25666;44.350;9.222;2023-02-28T12:09:35;101794.28;;;11.13;70.11
32324;BME280;25666;44.350;9.222;2023-02-28T12:23:26;101761.53;;;11.10;68.45
32324;BME280;25666;44.350;9.222;2023-02-28T12:28:42;101742.16;;;11.31;67.14
32324;BME280;25666;44.350;9.222;2023-02-28T12:31:19;101742.28;;;11.34;66.92
32324;BME280;25666;44.350;9.222;2023-02-28T12:33:59;101748.56;;;11.22;65.75
32324;BME280;25666;44.350;9.222;2023-02-28T12:36:26;101740.91;;;11.02;65.38
32324;BME280;25666;44.350;9.222;2023-02-28T12:39:21;101729.03;;;11.31;65.92
32324;BME280;25666;44.350;9.222;2023-02-28T12:41:53;101718.81;;;11.44;66.53
32324;BME280;25666;44.350;9.222;2023-02-28T12:44:23;101716.38;;;11.42;64.76
32324;BME280;25666;44.350;9.222;2023-02-28T12:46:55;101720.16;;;11.46;64.97
32324;BME280;25666;44.350;9.222;2023-02-28T12:51:57;101713.31;;;11.26;63.22
32324;BME280;25666;44.350;9.222;2023-02-28T12:54:40;101719.88;;;11.22;63.58
32324;BME280;25666;44.350;9.222;2023-02-28T12:57:25;101705.59;;;11.32;64.47
32324;BME280;25666;44.350;9.222;2023-02-28T12:59:56;101708.41;;;11.23;64.25
32324;BME280;25666;44.350;9.222;2023-02-28T13:05:24;101699.38;;;11.26;63.90
32324;BME280;25666;44.350;9.222;2023-02-28T13:08:11;101704.09;;;11.35;63.49
32324;BME280;25666;44.350;9.222;2023-02-28T13:10:46;101693.16;;;11.12;64.14
32324;BME280;25666;44.350;9.222;2023-02-28T13:13:21;101691.03;;;11.18;64.06
32324;BME280;25666;44.350;9.222;2023-02-28T13:16:05;101712.00;;;11.24;64.29
32324;BME280;25666;44.350;9.222;2023-02-28T13:18:36;101682.16;;;11.24;64.14
32324;BME280;25666;44.350;9.222;2023-02-28T13:21:04;101678.34;;;11.38;65.77
32324;BME280;25666;44.350;9.222;2023-02-28T13:56:03;101670.41;;;11.10;62.15
32324;BME280;25666;44.350;9.222;2023-02-28T13:58:55;101656.72;;;11.35;61.76
32324;BME280;25666;44.350;9.222;2023-02-28T14:06:54;101647.09;;;11.23;62.42
32324;BME280;25666;44.350;9.222;2023-02-28T14:09:33;101645.38;;;10.85;63.15
32324;BME280;25666;44.350;9.222;2023-02-28T14:15:17;101638.59;;;11.11;62.22
32324;BME280;25666;44.350;9.222;2023-02-28T14:17:54;101642.97;;;11.29;62.19
32324;BME280;25666;44.350;9.222;2023-02-28T14:20:22;101635.59;;;11.34;62.87
32324;BME280;25666;44.350;9.222;2023-02-28T14:23:12;101633.44;;;11.39;62.36
32324;BME280;25666;44.350;9.222;2023-02-28T14:29:19;101637.41;;;11.29;61.59
32324;BME280;25666;44.350;9.222;2023-02-28T14:31:48;101632.72;;;11.51;62.06
32324;BME280;25666;44.350;9.222;2023-02-28T14:36:44;101639.81;;;11.40;62.66
32324;BME280;25666;44.350;9.222;2023-02-28T14:39:20;101641.66;;;11.27;62.72
32324;BME280;25666;44.350;9.222;2023-02-28T14:41:47;101624.16;;;11.09;62.04
32324;BME280;25666;44.350;9.222;2023-02-28T14:44:21;101647.78;;;11.12;62.24
32324;BME280;25666;44.350;9.222;2023-02-28T14:46:58;101638.88;;;11.18;62.06
32324;BME280;25666;44.350;9.222;2023-02-28T14:49:34;101633.22;;;10.98;62.22
32324;BME280;25666;44.350;9.222;2023-02-28T14:52:24;101623.38;;;11.00;63.51
32324;BME280;25666;44.350;9.222;2023-02-28T14:54:57;101626.22;;;10.83;63.02
32324;BME280;25666;44.350;9.222;2023-02-28T14:57:27;101640.78;;;10.89;63.77
32324;BME280;25666;44.350;9.222;2023-02-28T14:59:58;101642.25;;;10.77;63.84
32324;BME280;25666;44.350;9.222;2023-02-28T15:02:25;101624.69;;;11.03;66.02
32324;BME280;25666;44.350;9.222;2023-02-28T15:05:19;101623.72;;;10.99;64.05